createdAt,value
2019-05-11T00:00:55.130Z,11.08
2019-05-11T00:04:02.942Z,11.06
2019-05-11T00:07:10.617Z,11.06
2019-05-11T00:10:18.419Z,11.14
2019-05-11T00:13:25.722Z,11.04
2019-05-11T00:16:33.108Z,10.98
2019-05-11T00:19:40.326Z,10.98
2019-05-11T00:22:47.845Z,11.02
2019-05-11T00:25:55.615Z,10.99
2019-05-11T00:29:03.012Z,10.99
2019-05-11T00:32:10.242Z,11.07
2019-05-11T00:35:17.553Z,10.96
2019-05-11T00:38:24.754Z,10.96
2019-05-11T00:41:31.979Z,10.92
2019-05-11T00:44:39.850Z,10.83
2019-05-11T00:47:47.347Z,10.80
2019-05-11T00:50:54.725Z,10.75
2019-05-11T00:54:02.378Z,10.65
2019-05-11T00:57:09.791Z,10.77
2019-05-11T01:00:18.003Z,10.80
2019-05-11T01:03:25.418Z,10.69
2019-05-11T01:06:32.736Z,10.54
2019-05-11T01:09:39.929Z,10.58
2019-05-11T01:12:47.237Z,10.52
2019-05-11T01:15:55.003Z,10.52
2019-05-11T01:19:02.917Z,10.61
2019-05-11T01:22:10.323Z,10.54
2019-05-11T01:25:17.642Z,10.45
2019-05-11T01:28:25.083Z,10.41
2019-05-11T01:31:32.615Z,10.44
2019-05-11T01:34:39.938Z,10.39
2019-05-11T01:37:47.614Z,10.32
2019-05-11T01:40:58.722Z,10.50
2019-05-11T01:44:04.623Z,10.33
2019-05-11T01:47:11.905Z,10.33
2019-05-11T01:50:20.024Z,10.39
2019-05-11T01:53:27.714Z,10.35
2019-05-11T01:56:35.105Z,10.40
2019-05-11T01:59:42.313Z,10.46
2019-05-11T02:02:50.066Z,10.49
2019-05-11T02:05:57.925Z,10.49
2019-05-11T02:09:06.316Z,10.51
2019-05-11T02:12:13.636Z,10.43
2019-05-11T02:15:21.192Z,10.41
2019-05-11T02:21:43.561Z,10.48
2019-05-11T02:24:50.946Z,10.50
2019-05-11T02:27:58.186Z,10.39
2019-05-11T02:31:05.424Z,10.45
2019-05-11T02:34:13.041Z,10.39
2019-05-11T02:37:20.337Z,10.50
2019-05-11T02:40:27.817Z,10.27
2019-05-11T02:43:35.221Z,10.24
2019-05-11T02:46:42.611Z,10.21
2019-05-11T02:49:50.628Z,10.20
2019-05-11T02:52:58.960Z,10.19
2019-05-11T02:56:06.661Z,10.09
2019-05-11T02:59:14.210Z,10.19
2019-05-11T03:02:21.432Z,10.01
2019-05-11T03:05:31.685Z,9.89
2019-05-11T03:08:39.731Z,9.80
2019-05-11T03:11:55.336Z,9.92
2019-05-11T03:14:56.532Z,10.04
2019-05-11T03:18:04.291Z,10.09
2019-05-11T03:21:11.446Z,10.22
2019-05-11T03:24:18.634Z,10.30
2019-05-11T03:27:25.963Z,10.36
2019-05-11T03:30:33.348Z,10.36
2019-05-11T03:33:40.844Z,10.33
2019-05-11T03:36:48.254Z,10.36
2019-05-11T03:39:55.480Z,10.38
2019-05-11T03:43:03.074Z,10.43
2019-05-11T03:46:10.265Z,10.50
2019-05-11T03:49:17.760Z,10.51
2019-05-11T03:52:25.184Z,10.54
2019-05-11T03:55:32.861Z,10.60
2019-05-11T03:58:40.170Z,10.58
2019-05-11T04:01:47.708Z,10.58
2019-05-11T04:04:56.136Z,10.62
2019-05-11T04:08:03.444Z,10.69
2019-05-11T04:11:10.894Z,10.70
2019-05-11T04:14:18.059Z,10.74
2019-05-11T04:17:25.483Z,10.80
2019-05-11T04:20:32.824Z,10.88
2019-05-11T04:23:40.505Z,10.95
2019-05-11T04:26:48.014Z,10.98
2019-05-11T04:29:56.032Z,11.04
2019-05-11T04:33:03.670Z,11.13
2019-05-11T04:36:11.003Z,11.00
2019-05-11T04:39:18.296Z,10.97
2019-05-11T04:42:25.587Z,11.15
2019-05-11T04:45:33.233Z,10.97
2019-05-11T04:48:40.515Z,11.04
2019-05-11T04:51:48.017Z,10.99
2019-05-11T04:54:55.411Z,11.08
2019-05-11T04:58:02.899Z,11.19
2019-05-11T05:01:10.514Z,11.22
2019-05-11T05:04:18.042Z,10.96
2019-05-11T05:07:25.226Z,11.14
2019-05-11T05:10:32.637Z,11.00
2019-05-11T05:13:40.247Z,11.18
2019-05-11T05:16:48.465Z,11.37
2019-05-11T05:19:55.860Z,11.56
2019-05-11T05:23:03.576Z,11.84
2019-05-11T05:26:11.259Z,11.74
2019-05-11T05:29:18.866Z,11.79
2019-05-11T05:32:27.802Z,11.69
2019-05-11T05:35:35.895Z,11.69
2019-05-11T05:38:43.346Z,11.85
2019-05-11T05:41:57.329Z,11.93
2019-05-11T05:45:06.351Z,12.11
2019-05-11T05:48:13.743Z,12.10
2019-05-11T05:51:21.370Z,12.15
2019-05-11T05:54:28.667Z,12.18
2019-05-11T05:57:35.898Z,12.15
2019-05-11T06:00:43.407Z,12.25
2019-05-11T06:03:50.788Z,12.37
2019-05-11T06:06:58.191Z,12.34
2019-05-11T06:10:06.372Z,12.26
2019-05-11T06:13:13.780Z,12.22
2019-05-11T06:16:21.271Z,12.11
2019-05-11T06:19:28.585Z,12.14
2019-05-11T06:22:36.434Z,12.12
2019-05-11T06:25:43.759Z,12.25
2019-05-11T06:28:51.231Z,12.44
2019-05-11T06:32:00.381Z,12.66
2019-05-11T06:35:10.451Z,12.82
2019-05-11T06:38:17.738Z,12.79
2019-05-11T06:41:25.511Z,12.91
2019-05-11T06:44:32.983Z,12.89
2019-05-11T06:47:40.707Z,12.89
2019-05-11T06:50:48.127Z,12.90
2019-05-11T06:53:55.699Z,12.55
2019-05-11T06:57:03.398Z,12.31
2019-05-11T07:00:11.375Z,12.46
2019-05-11T07:03:18.774Z,12.33
2019-05-11T07:06:30.127Z,12.10
2019-05-11T07:09:35.566Z,12.01
2019-05-11T07:12:42.869Z,12.12
2019-05-11T07:15:50.422Z,12.37
2019-05-11T07:18:57.899Z,12.74
2019-05-11T07:22:05.403Z,13.04
2019-05-11T07:25:13.025Z,13.58
2019-05-11T07:28:20.204Z,14.04
2019-05-11T07:31:27.396Z,14.55
2019-05-11T07:34:34.802Z,14.27
2019-05-11T07:37:42.018Z,14.65
2019-05-11T07:40:49.262Z,15.22
2019-05-11T07:43:58.779Z,15.05
2019-05-11T07:47:07.942Z,15.62
2019-05-11T07:50:17.939Z,15.52
2019-05-11T07:53:24.897Z,16.15
2019-05-11T07:56:32.617Z,17.11
2019-05-11T07:59:40.000Z,18.01
2019-05-11T08:02:48.111Z,18.75
2019-05-11T08:05:58.056Z,18.60
2019-05-11T08:09:08.321Z,17.43
2019-05-11T08:12:15.475Z,17.39
2019-05-11T08:15:22.896Z,17.47
2019-05-11T08:18:30.182Z,17.40
2019-05-11T08:21:38.875Z,17.43
2019-05-11T08:24:48.145Z,17.33
2019-05-11T08:27:55.636Z,17.28
2019-05-11T08:31:03.363Z,17.50
2019-05-11T08:34:11.063Z,16.92
2019-05-11T08:37:18.895Z,16.95
2019-05-11T08:40:28.768Z,16.98
2019-05-11T08:43:38.689Z,16.91
2019-05-11T08:46:47.882Z,17.31
2019-05-11T08:49:55.018Z,17.75
2019-05-11T08:53:02.523Z,18.18
2019-05-11T08:56:13.156Z,17.70
2019-05-11T08:59:19.217Z,17.35
2019-05-11T09:02:27.836Z,17.17
2019-05-11T09:05:35.429Z,17.29
2019-05-11T09:08:42.725Z,17.04
2019-05-11T09:11:49.950Z,16.82
2019-05-11T09:14:58.130Z,17.00
2019-05-11T09:18:08.271Z,16.89
2019-05-11T09:21:15.759Z,17.08
2019-05-11T09:24:23.451Z,17.35
2019-05-11T09:27:31.679Z,17.37
2019-05-11T09:30:39.431Z,17.10
2019-05-11T09:33:47.970Z,16.92
2019-05-11T09:36:58.658Z,17.31
2019-05-11T09:40:07.876Z,17.91
2019-05-11T09:43:17.865Z,18.09
2019-05-11T09:46:27.911Z,17.46
2019-05-11T09:49:47.096Z,16.88
2019-05-11T09:52:48.996Z,16.45
2019-05-11T09:55:58.663Z,16.28
2019-05-11T09:59:08.575Z,16.21
2019-05-11T10:02:20.425Z,16.15
2019-05-11T10:05:28.429Z,16.14
2019-05-11T10:08:35.344Z,16.44
2019-05-11T10:11:43.175Z,16.86
2019-05-11T10:14:50.397Z,17.04
2019-05-11T10:17:59.022Z,17.33
2019-05-11T10:21:08.143Z,17.22
2019-05-11T10:24:17.804Z,17.48
2019-05-11T10:27:28.007Z,17.44
2019-05-11T10:30:38.388Z,17.19
2019-05-11T10:33:48.835Z,16.94
2019-05-11T10:36:58.017Z,16.75
2019-05-11T10:40:06.515Z,16.27
2019-05-11T10:43:14.174Z,15.94
2019-05-11T10:46:23.583Z,15.76
2019-05-11T10:49:31.641Z,15.56
2019-05-11T10:52:39.966Z,15.38
2019-05-11T10:55:59.405Z,15.30
2019-05-11T10:59:18.726Z,15.07
2019-05-11T11:02:27.766Z,15.04
2019-05-11T11:05:38.269Z,14.88
2019-05-11T11:08:45.791Z,15.03
2019-05-11T11:11:53.116Z,14.85
2019-05-11T11:15:01.200Z,14.65
2019-05-11T11:18:09.007Z,14.50
2019-05-11T11:21:22.098Z,14.26
2019-05-11T11:24:28.718Z,14.13
2019-05-11T11:27:38.107Z,14.08
2019-05-11T11:30:47.979Z,13.88
2019-05-11T11:33:56.222Z,13.78
2019-05-11T11:37:04.763Z,13.82
2019-05-11T11:40:14.520Z,13.90
2019-05-11T11:43:23.832Z,14.46
2019-05-11T11:46:31.659Z,14.79
2019-05-11T11:49:39.918Z,15.78
2019-05-11T11:52:48.432Z,17.00
2019-05-11T11:55:56.172Z,17.11
2019-05-11T11:59:03.763Z,17.24
2019-05-11T12:02:11.790Z,17.35
2019-05-11T12:05:20.126Z,17.53
2019-05-11T12:08:28.936Z,18.15
2019-05-11T12:11:38.080Z,17.83
2019-05-11T12:14:48.035Z,17.90
2019-05-11T12:17:58.583Z,17.71
2019-05-11T12:21:08.005Z,17.36
2019-05-11T12:24:15.750Z,16.88
2019-05-11T12:27:23.168Z,16.42
2019-05-11T12:30:30.986Z,15.98
2019-05-11T12:33:38.774Z,15.58
2019-05-11T12:36:48.003Z,15.45
2019-05-11T12:39:58.284Z,15.29
2019-05-11T12:43:08.153Z,15.21
2019-05-11T12:46:18.620Z,14.98
2019-05-11T12:49:25.676Z,14.61
2019-05-11T12:52:33.397Z,14.57
2019-05-11T12:55:41.336Z,13.94
2019-05-11T12:58:50.409Z,13.94
2019-05-11T13:01:59.281Z,13.41
2019-05-11T13:05:08.662Z,13.35
2019-05-11T13:08:18.473Z,13.26
2019-05-11T13:11:28.444Z,12.75
2019-05-11T13:14:38.165Z,12.57
2019-05-11T13:17:48.962Z,12.33
2019-05-11T13:20:58.799Z,12.14
2019-05-11T13:24:08.370Z,11.90
2019-05-11T13:27:17.940Z,11.81
2019-05-11T13:30:27.796Z,11.67
2019-05-11T13:33:35.633Z,11.51
2019-05-11T13:36:44.154Z,11.07
2019-05-11T13:39:52.358Z,11.12
2019-05-11T13:43:00.671Z,11.10
2019-05-11T13:46:08.877Z,11.00
2019-05-11T13:49:17.848Z,10.84
2019-05-11T13:52:28.535Z,10.63
2019-05-11T13:55:35.939Z,10.49
2019-05-11T13:58:43.809Z,10.34
2019-05-11T14:01:51.720Z,10.50
2019-05-11T14:04:59.501Z,10.52
2019-05-11T14:08:08.119Z,10.66
2019-05-11T14:11:18.148Z,10.58
2019-05-11T14:14:25.973Z,10.46
2019-05-11T14:17:33.746Z,10.56
2019-05-11T14:20:41.208Z,10.60
2019-05-11T14:23:48.786Z,10.30
2019-05-11T14:26:57.858Z,10.39
2019-05-11T14:30:08.555Z,10.27
2019-05-11T14:33:18.033Z,10.21
2019-05-11T14:36:28.047Z,10.48
2019-05-11T14:39:35.604Z,10.61
2019-05-11T14:42:43.631Z,10.74
2019-05-11T14:45:51.523Z,10.84
2019-05-11T14:49:00.725Z,10.84
2019-05-11T14:52:08.612Z,10.99
2019-05-11T14:55:18.412Z,10.94
2019-05-11T14:58:27.988Z,10.79
2019-05-11T15:01:38.183Z,10.78
2019-05-11T15:04:48.225Z,10.41
2019-05-11T15:07:55.052Z,10.32
2019-05-11T15:11:03.335Z,10.28
2019-05-11T15:14:11.207Z,10.56
2019-05-11T15:17:18.943Z,10.54
2019-05-11T15:20:28.489Z,10.64
2019-05-11T15:23:37.840Z,10.84
2019-05-11T15:26:45.739Z,11.15
2019-05-11T15:29:53.925Z,11.25
2019-05-11T15:33:02.485Z,11.40
2019-05-11T15:36:10.879Z,11.58
2019-05-11T15:39:18.657Z,11.88
2019-05-11T15:42:28.655Z,12.02
2019-05-11T15:45:38.025Z,12.10
2019-05-11T15:48:56.682Z,12.23
2019-05-11T15:51:57.770Z,12.52
2019-05-11T15:55:08.077Z,12.38
2019-05-11T15:58:21.489Z,11.88
2019-05-11T16:01:25.928Z,12.04
2019-05-11T16:04:33.927Z,12.11
2019-05-11T16:07:41.147Z,12.29
2019-05-11T16:10:49.128Z,12.27
2019-05-11T16:13:58.550Z,12.02
2019-05-11T16:17:05.872Z,11.69
2019-05-11T16:20:14.206Z,11.48
2019-05-11T16:23:21.794Z,11.28
2019-05-11T16:26:29.117Z,11.22
2019-05-11T16:29:38.473Z,11.00
2019-05-11T16:32:47.977Z,10.90
2019-05-11T16:35:55.052Z,10.89
2019-05-11T16:39:09.990Z,10.91
2019-05-11T16:42:15.429Z,10.96
2019-05-11T16:45:24.027Z,10.79
2019-05-11T16:48:31.786Z,10.99
2019-05-11T16:51:39.356Z,10.95
2019-05-11T16:54:47.760Z,10.94
2019-05-11T16:57:58.594Z,11.05
2019-05-11T17:01:08.367Z,11.03
2019-05-11T17:04:16.408Z,11.04
2019-05-11T17:07:23.902Z,11.13
2019-05-11T17:10:31.307Z,11.13
2019-05-11T17:13:39.155Z,11.35
2019-05-11T17:16:48.171Z,11.24
2019-05-11T17:19:58.769Z,11.10
2019-05-11T17:23:05.888Z,11.21
2019-05-11T17:26:13.602Z,11.33
2019-05-11T17:29:21.417Z,11.24
2019-05-11T17:32:29.464Z,11.05
2019-05-11T17:35:37.059Z,10.99
2019-05-11T17:38:44.595Z,10.83
2019-05-11T17:41:52.071Z,10.71
2019-05-11T17:44:59.657Z,10.75
2019-05-11T17:48:08.472Z,10.72
2019-05-11T17:51:21.725Z,10.62
2019-05-11T17:54:28.305Z,10.53
2019-05-11T17:57:38.089Z,10.55
2019-05-11T18:00:45.084Z,10.50
2019-05-11T18:03:53.401Z,10.35
2019-05-11T18:07:01.176Z,10.33
2019-05-11T18:10:09.080Z,10.38
2019-05-11T18:13:17.193Z,10.17
2019-05-11T18:16:24.590Z,10.12
2019-05-11T18:19:32.254Z,10.22
2019-05-11T18:22:39.774Z,10.17
2019-05-11T18:25:48.069Z,10.12
2019-05-11T18:28:55.713Z,10.09
2019-05-11T18:32:03.783Z,10.01
2019-05-11T18:35:11.614Z,10.23
2019-05-11T18:38:19.116Z,10.23
2019-05-11T18:41:28.253Z,10.01
2019-05-11T18:44:37.933Z,9.95
2019-05-11T18:47:48.325Z,10.01
2019-05-11T18:50:58.871Z,9.86
2019-05-11T18:54:08.605Z,9.89
2019-05-11T19:00:19.882Z,9.96
2019-05-11T19:03:28.307Z,10.05
2019-05-11T19:06:37.843Z,10.08
2019-05-11T19:09:45.588Z,10.01
2019-05-11T19:12:53.924Z,9.95
2019-05-11T19:16:01.990Z,9.85
2019-05-11T19:19:10.186Z,9.99
2019-05-11T19:22:18.485Z,9.93
2019-05-11T19:25:26.416Z,9.91
2019-05-11T19:28:34.746Z,9.89
2019-05-11T19:31:42.519Z,9.84
2019-05-11T19:34:50.284Z,9.79
2019-05-11T19:37:58.130Z,9.73
2019-05-11T19:41:07.887Z,9.62
2019-05-11T19:44:18.527Z,9.65
2019-05-11T19:47:25.377Z,9.53
2019-05-11T19:50:32.783Z,9.75
2019-05-11T19:53:40.637Z,9.64
2019-05-11T19:56:51.770Z,9.50
2019-05-11T19:59:58.379Z,9.63
2019-05-11T20:03:08.842Z,9.60
2019-05-11T20:06:15.651Z,9.42
2019-05-11T20:09:23.062Z,9.38
2019-05-11T20:12:31.048Z,9.42
2019-05-11T20:15:38.548Z,9.38
2019-05-11T20:18:46.866Z,9.30
2019-05-11T20:21:54.685Z,9.42
2019-05-11T20:25:02.572Z,9.22
2019-05-11T20:28:10.074Z,9.15
2019-05-11T20:31:18.352Z,9.02
2019-05-11T20:34:28.280Z,9.23
2019-05-11T20:37:38.417Z,9.13
2019-05-11T20:40:48.339Z,9.11
2019-05-11T20:43:55.256Z,9.12
2019-05-11T20:47:02.903Z,9.04
2019-05-11T20:50:10.617Z,9.15
2019-05-11T20:53:18.265Z,9.16
2019-05-11T20:56:28.278Z,9.17
2019-05-11T20:59:35.452Z,8.99
2019-05-11T21:02:42.987Z,9.07
2019-05-11T21:05:50.571Z,8.99
2019-05-11T21:08:57.860Z,9.22
2019-05-11T21:12:07.933Z,9.14
2019-05-11T21:15:16.419Z,9.20
2019-05-11T21:18:23.854Z,9.29
2019-05-11T21:21:46.039Z,9.31
2019-05-11T21:24:40.948Z,9.22
2019-05-11T21:27:48.834Z,9.15
2019-05-11T21:30:58.397Z,9.22
2019-05-11T21:34:08.047Z,9.20
2019-05-11T21:37:15.252Z,9.23
2019-05-11T21:40:22.696Z,9.22
2019-05-11T21:43:30.015Z,9.01
2019-05-11T21:46:38.842Z,9.16
2019-05-11T21:49:48.509Z,9.09
2019-05-11T21:52:55.915Z,8.92
2019-05-11T21:56:03.587Z,8.93
2019-05-11T21:59:10.928Z,8.91
2019-05-11T22:02:18.651Z,8.77
2019-05-11T22:05:28.353Z,8.91
2019-05-11T22:08:35.792Z,8.96
2019-05-11T22:11:43.295Z,8.87
2019-05-11T22:14:50.605Z,8.79
2019-05-11T22:17:58.572Z,8.82
2019-05-11T22:21:08.454Z,8.84
2019-05-11T22:24:17.760Z,8.74
2019-05-11T22:27:24.792Z,8.59
2019-05-11T22:30:32.526Z,8.85
2019-05-11T22:33:40.259Z,8.72
2019-05-11T22:36:47.996Z,8.76
2019-05-11T22:39:57.688Z,8.64
2019-05-11T22:43:04.794Z,8.85
2019-05-11T22:46:12.462Z,8.79
2019-05-11T22:49:19.648Z,8.76
2019-05-11T22:52:36.110Z,8.66
2019-05-11T22:55:38.249Z,8.70
2019-05-11T22:58:49.693Z,8.77
2019-05-11T23:01:56.214Z,8.61
2019-05-11T23:05:04.066Z,8.66
2019-05-11T23:08:12.387Z,8.47
2019-05-11T23:11:20.333Z,8.41
2019-05-11T23:14:28.286Z,8.24
2019-05-11T23:17:38.462Z,8.21
2019-05-11T23:20:47.475Z,8.08
2019-05-11T23:23:54.451Z,8.14
2019-05-11T23:27:01.993Z,8.15
2019-05-11T23:30:10.125Z,7.93
2019-05-11T23:33:18.397Z,8.03
2019-05-11T23:36:28.013Z,8.06
2019-05-11T23:39:35.207Z,7.86
2019-05-11T23:42:42.392Z,8.03
2019-05-11T23:45:49.812Z,7.99
2019-05-11T23:48:58.101Z,7.67
2019-05-11T23:52:07.654Z,7.57
2019-05-11T23:55:18.691Z,7.59
2019-05-11T23:58:28.125Z,7.72
